Time;durP1;ratioP1;P1;durP2;ratioP2;P2;SDS_P1;SDS_P2;PMS_P1;PMS_P2;Temp;Humidity;BMP_temperature;BMP_pressure;BME280_temperature;BME280_humidity;BME280_pressure;Samples;Min_cycle;Max_cycle;Signal;HPM_P1;HPM_P2
2022/11/17 00:01:41;;;;;;;4.33;2.07;;;;;;;9.80;100.00;97255.50;4994304;28;20258;-81
2022/11/17 00:04:10;;;;;;;4.70;1.90;;;;;;;9.80;100.00;97263.44;4991834;28;20340;-81
2022/11/17 00:06:38;;;;;;;4.90;1.90;;;;;;;9.78;100.00;97265.41;4986511;28;20234;-81
2022/11/17 00:09:16;;;;;;;4.47;1.70;;;;;;;9.70;100.00;97265.25;5003175;28;20192;-81
2022/11/17 00:14:36;;;;;;;5.77;1.93;;;;;;;9.69;100.00;97253.00;5094990;28;20206;-81
2022/11/17 00:17:09;;;;;;;5.03;2.13;;;;;;;9.77;100.00;97247.03;5096068;28;20275;-80
2022/11/17 00:22:25;;;;;;;4.87;2.10;;;;;;;9.65;100.00;97238.38;5095229;28;20184;-80
2022/11/17 00:24:53;;;;;;;6.93;2.20;;;;;;;9.68;100.00;97243.41;5094798;28;20241;-80
2022/11/17 00:27:21;;;;;;;5.87;1.90;;;;;;;9.77;100.00;97242.56;5093832;28;20188;-80
2022/11/17 00:29:50;;;;;;;4.60;2.10;;;;;;;9.77;100.00;97245.22;5095179;28;20226;-80
2022/11/17 00:35:15;;;;;;;4.80;1.80;;;;;;;9.79;100.00;97234.50;5058768;28;20203;-80
2022/11/17 00:38:14;;;;;;;5.40;2.00;;;;;;;9.79;100.00;97235.34;5068550;28;20269;-80
2022/11/17 00:40:36;;;;;;;5.77;2.30;;;;;;;9.73;100.00;97230.59;5031073;28;20285;-80
2022/11/17 00:43:05;;;;;;;5.00;2.23;;;;;;;9.69;100.00;97223.94;5027402;28;20656;-80
2022/11/17 00:45:33;;;;;;;7.30;1.93;;;;;;;9.76;100.00;97222.41;5027110;28;20707;-80
2022/11/17 00:48:04;;;;;;;7.00;2.13;;;;;;;9.75;100.00;97215.44;5027428;28;20333;-80
2022/11/17 00:50:33;;;;;;;4.40;2.00;;;;;;;9.84;100.00;97217.22;5032238;28;20226;-80
2022/11/17 00:53:01;;;;;;;7.07;2.10;;;;;;;9.86;100.00;97204.72;5030680;28;20194;-81
2022/11/17 00:55:30;;;;;;;6.13;2.07;;;;;;;9.88;100.00;97196.66;5031747;28;20193;-80
2022/11/17 00:57:58;;;;;;;5.97;2.03;;;;;;;9.80;100.00;97197.34;5039691;28;20221;-80
2022/11/17 01:00:28;;;;;;;6.73;2.40;;;;;;;9.73;100.00;97194.41;5071607;28;20200;-80
2022/11/17 01:02:58;;;;;;;3.30;1.97;;;;;;;9.64;100.00;97184.69;5087119;28;20273;-80
2022/11/17 01:05:28;;;;;;;7.87;2.03;;;;;;;9.71;100.00;97183.16;5085361;28;20253;-80
2022/11/17 01:08:00;;;;;;;6.53;2.17;;;;;;;9.77;100.00;97187.06;5093486;28;20274;-80
2022/11/17 01:10:28;;;;;;;4.57;2.10;;;;;;;9.71;100.00;97185.81;5093049;28;20192;-80
2022/11/17 01:12:58;;;;;;;7.10;2.23;;;;;;;9.68;100.00;97172.06;5091403;28;20188;-80
2022/11/17 01:15:26;;;;;;;7.17;2.53;;;;;;;9.60;100.00;97162.19;5072832;28;20222;-80
2022/11/17 01:17:57;;;;;;;3.73;2.20;;;;;;;9.70;100.00;97162.16;4987836;28;20218;-80
2022/11/17 01:20:29;;;;;;;6.63;2.30;;;;;;;9.70;100.00;97167.44;4942338;28;20237;-81
2022/11/17 01:22:57;;;;;;;7.70;2.43;;;;;;;9.67;100.00;97152.72;4992364;28;20191;-81
2022/11/17 01:25:25;;;;;;;6.23;2.40;;;;;;;9.57;100.00;97153.72;4982703;28;20226;-81
2022/11/17 01:27:54;;;;;;;4.30;2.83;;;;;;;9.63;100.00;97150.47;4990909;28;20246;-81
2022/11/17 01:30:25;;;;;;;8.03;2.70;;;;;;;9.65;100.00;97146.75;4931719;29;20213;-80
2022/11/17 01:32:53;;;;;;;6.07;2.80;;;;;;;9.60;100.00;97142.84;4932367;29;20201;-80
2022/11/17 01:35:22;;;;;;;8.23;2.67;;;;;;;9.62;100.00;97140.88;4940610;28;20198;-80
2022/11/17 01:37:52;;;;;;;6.50;3.10;;;;;;;9.57;100.00;97136.03;4987624;28;20760;-80
2022/11/17 01:40:20;;;;;;;6.90;2.87;;;;;;;9.46;100.00;97121.19;4986860;28;20214;-80
2022/11/17 01:42:49;;;;;;;10.57;3.30;;;;;;;9.50;100.00;97121.72;5025232;28;20227;-80
2022/11/17 01:45:21;;;;;;;8.03;3.70;;;;;;;9.54;100.00;97103.75;5048487;28;20757;-80
2022/11/17 01:47:56;;;;;;;7.17;2.97;;;;;;;9.54;100.00;97090.56;5056296;28;20222;-80
2022/11/17 01:50:35;;;;;;;6.33;3.00;;;;;;;9.56;100.00;97093.91;5093046;28;20195;-80
2022/11/17 01:53:10;;;;;;;6.53;3.40;;;;;;;9.56;100.00;97086.81;5089349;28;20200;-80
2022/11/17 01:55:44;;;;;;;6.17;3.53;;;;;;;9.62;100.00;97080.94;5094514;28;20192;-80
2022/11/17 01:58:16;;;;;;;9.13;3.60;;;;;;;9.55;100.00;97077.19;5093319;28;20216;-80
2022/11/17 02:00:44;;;;;;;9.07;3.10;;;;;;;9.60;100.00;97079.41;5092608;28;20196;-80
2022/11/17 02:03:14;;;;;;;7.27;3.70;;;;;;;9.59;100.00;97078.59;5090950;28;20191;-80
2022/11/17 02:05:50;;;;;;;7.20;3.60;;;;;;;9.64;100.00;97071.03;5092783;28;20191;-80
2022/11/17 02:08:22;;;;;;;6.90;4.17;;;;;;;9.61;100.00;97066.06;5093157;28;20196;-81
2022/11/17 02:10:52;;;;;;;5.03;3.87;;;;;;;9.65;100.00;97053.38;5090352;28;20322;-80
2022/11/17 02:13:21;;;;;;;7.53;4.00;;;;;;;9.66;100.00;97060.34;5102097;28;20650;-80
2022/11/17 02:15:50;;;;;;;8.70;3.93;;;;;;;9.69;100.00;97049.50;5088529;28;20199;-80
2022/11/17 02:18:19;;;;;;;8.30;4.47;;;;;;;9.65;100.00;97040.16;5092185;28;20221;-81
2022/11/17 02:21:00;;;;;;;7.47;4.20;;;;;;;9.70;100.00;97044.06;5092315;28;20647;-81
2022/11/17 02:23:56;;;;;;;6.37;4.10;;;;;;;9.68;100.00;97032.81;5093134;28;20198;-80
2022/11/17 02:26:50;;;;;;;9.87;5.00;;;;;;;9.65;100.00;97029.59;5091959;28;20188;-80
2022/11/17 02:29:28;;;;;;;8.47;4.90;;;;;;;9.79;100.00;97030.94;5069800;28;20230;-80
2022/11/17 02:32:04;;;;;;;7.50;4.73;;;;;;;9.70;100.00;97024.72;5070132;28;20595;-79
2022/11/17 02:34:43;;;;;;;8.20;4.40;;;;;;;9.68;100.00;97008.19;5070832;28;20196;-80
2022/11/17 02:37:22;;;;;;;6.77;4.27;;;;;;;9.70;100.00;97011.50;5070838;28;20192;-80
2022/11/17 02:39:59;;;;;;;6.97;4.30;;;;;;;9.73;100.00;96998.00;5071451;28;20277;-80
2022/11/17 02:45:26;;;;;;;8.40;4.70;;;;;;;9.65;100.00;96993.47;5070631;28;20203;-80
2022/11/17 02:47:57;;;;;;;8.93;4.60;;;;;;;9.66;100.00;96989.00;5070490;28;20274;-80
2022/11/17 02:50:27;;;;;;;7.37;4.93;;;;;;;9.70;100.00;96982.44;5068131;28;20230;-80
2022/11/17 02:52:56;;;;;;;6.17;4.60;;;;;;;9.60;100.00;96971.06;5067801;28;20200;-80
2022/11/17 02:55:26;;;;;;;8.93;5.00;;;;;;;9.57;100.00;96966.91;5066725;28;20222;-80
2022/11/17 02:57:54;;;;;;;6.17;4.93;;;;;;;9.57;100.00;96958.16;5065975;28;20201;-81
2022/11/17 03:00:26;;;;;;;7.00;5.20;;;;;;;9.53;100.00;96951.50;5070493;28;20220;-81
2022/11/17 03:03:13;;;;;;;7.57;5.40;;;;;;;9.52;100.00;96955.94;5069209;28;20200;-80
2022/11/17 03:05:51;;;;;;;7.60;5.10;;;;;;;9.57;100.00;96963.44;5070399;28;20235;-81
2022/11/17 03:08:31;;;;;;;8.20;5.17;;;;;;;9.52;100.00;96948.00;5092157;28;20234;-81
2022/11/17 03:11:02;;;;;;;8.10;5.77;;;;;;;9.41;100.00;96953.50;5089701;28;20194;-80
2022/11/17 03:13:44;;;;;;;9.97;5.40;;;;;;;9.41;100.00;96953.50;5039329;28;20296;-81
2022/11/17 03:16:24;;;;;;;8.30;5.90;;;;;;;9.36;100.00;96959.22;5083942;28;20204;-81
2022/11/17 03:19:04;;;;;;;8.57;5.80;;;;;;;9.45;100.00;96952.22;5090391;28;20242;-80
2022/11/17 03:21:38;;;;;;;12.17;6.17;;;;;;;9.42;100.00;96960.44;5090496;28;20192;-80
2022/11/17 03:24:11;;;;;;;7.77;5.63;;;;;;;9.39;100.00;96955.44;5088255;28;20622;-81
2022/11/17 03:26:45;;;;;;;9.13;6.00;;;;;;;9.29;100.00;96958.13;5088265;28;20344;-80
2022/11/17 03:29:17;;;;;;;8.47;6.40;;;;;;;9.33;100.00;96959.50;5058643;28;20196;-81
2022/11/17 03:31:50;;;;;;;9.23;6.03;;;;;;;9.34;100.00;96953.22;5088216;28;20223;-81
2022/11/17 03:34:24;;;;;;;7.87;6.50;;;;;;;9.32;100.00;96949.06;5094261;28;20196;-80
2022/11/17 03:37:02;;;;;;;11.90;6.93;;;;;;;9.32;100.00;96947.25;5095383;28;20248;-81
2022/11/17 03:39:33;;;;;;;11.10;6.87;;;;;;;9.24;100.00;96948.97;5075328;28;20211;-81
2022/11/17 03:42:06;;;;;;;9.80;7.17;;;;;;;9.28;100.00;96953.81;5072151;28;20247;-81
2022/11/17 03:44:40;;;;;;;10.80;7.50;;;;;;;9.23;100.00;96948.13;5040273;28;20197;-81
2022/11/17 03:47:12;;;;;;;12.73;7.97;;;;;;;9.18;100.00;96948.56;5073301;28;20267;-81
2022/11/17 03:49:49;;;;;;;12.87;7.83;;;;;;;9.12;100.00;96945.66;5074416;28;20636;-81
2022/11/17 03:52:20;;;;;;;11.07;8.17;;;;;;;9.13;100.00;96952.63;5080450;28;20329;-81
2022/11/17 03:54:51;;;;;;;11.63;8.00;;;;;;;9.13;100.00;96945.53;5020234;28;20188;-81
2022/11/17 03:57:26;;;;;;;13.53;8.77;;;;;;;9.14;100.00;96946.34;5033076;28;20238;-81
2022/11/17 04:00:01;;;;;;;13.77;8.90;;;;;;;9.15;100.00;96946.19;5037797;28;20675;-81
2022/11/17 04:02:31;;;;;;;16.30;8.90;;;;;;;9.11;100.00;96936.09;5051895;28;20193;-81
2022/11/17 04:05:05;;;;;;;14.53;9.27;;;;;;;9.11;100.00;96930.81;5052771;28;20224;-80
2022/11/17 04:07:36;;;;;;;13.53;8.83;;;;;;;9.12;100.00;96937.75;5053162;28;20203;-81
2022/11/17 04:10:05;;;;;;;14.23;9.80;;;;;;;9.13;100.00;96936.78;5052964;28;20288;-81
2022/11/17 04:18:16;;;;;;;10.93;8.77;;;;;;;9.07;100.00;96924.13;5025515;28;20235;-80
2022/11/17 04:20:45;;;;;;;12.43;9.43;;;;;;;9.09;100.00;96922.19;5052588;28;20220;-81
2022/11/17 04:23:15;;;;;;;12.27;8.50;;;;;;;9.10;100.00;96914.13;5092726;28;20203;-81
2022/11/17 04:28:38;;;;;;;13.33;9.33;;;;;;;9.07;100.00;96914.44;5093673;28;20199;-81
2022/11/17 04:31:09;;;;;;;16.43;9.73;;;;;;;9.05;100.00;96908.44;5092565;28;20188;-81
2022/11/17 04:33:41;;;;;;;14.13;9.67;;;;;;;9.12;100.00;96919.25;5091116;28;20677;-81
2022/11/17 04:36:10;;;;;;;12.93;9.33;;;;;;;9.15;100.00;96919.78;5075063;28;20228;-81
2022/11/17 04:38:42;;;;;;;14.47;9.07;;;;;;;9.07;100.00;96916.22;5072322;28;20195;-81
2022/11/17 04:43:58;;;;;;;10.33;8.67;;;;;;;9.13;100.00;96911.19;5069375;28;20200;-81
2022/11/17 04:46:27;;;;;;;15.17;9.47;;;;;;;9.13;100.00;96918.28;5069748;28;20232;-81
2022/11/17 04:48:57;;;;;;;13.83;9.27;;;;;;;9.09;100.00;96922.19;5071592;28;20193;-81
2022/11/17 04:51:27;;;;;;;12.50;8.40;;;;;;;9.04;100.00;96924.44;5072177;28;20196;-81
2022/11/17 04:53:56;;;;;;;11.63;8.77;;;;;;;9.06;100.00;96923.28;5074589;28;20676;-81
2022/11/17 04:56:25;;;;;;;11.40;8.63;;;;;;;9.11;100.00;96923.72;5092326;28;20199;-80
2022/11/17 04:58:54;;;;;;;11.17;8.57;;;;;;;9.10;100.00;96913.31;5093181;28;20643;-80
2022/11/17 05:01:23;;;;;;;14.57;9.30;;;;;;;9.14;100.00;96912.84;5095855;28;20211;-80
2022/11/17 05:03:53;;;;;;;12.83;9.87;;;;;;;9.18;100.00;96898.41;5102411;27;20233;-80
2022/11/17 05:06:25;;;;;;;11.83;8.83;;;;;;;9.18;100.00;96901.03;5094845;28;20196;-80
2022/11/17 05:08:55;;;;;;;12.27;9.90;;;;;;;9.17;100.00;96909.13;5090483;28;20199;-80
2022/11/17 05:14:16;;;;;;;9.90;8.40;;;;;;;9.18;100.00;96905.50;5094019;28;20192;-80
2022/11/17 05:19:38;;;;;;;12.07;8.30;;;;;;;9.19;100.00;96899.22;5093895;28;20237;-80
2022/11/17 05:24:51;;;;;;;11.33;8.50;;;;;;;9.17;100.00;96906.47;5093924;28;20313;-80
2022/11/17 05:27:20;;;;;;;11.43;8.00;;;;;;;9.22;100.00;96912.13;5087641;28;20200;-80
2022/11/17 05:29:48;;;;;;;10.27;8.20;;;;;;;9.20;100.00;96907.97;5093576;28;20192;-79
2022/11/17 05:32:17;;;;;;;9.47;7.90;;;;;;;9.23;100.00;96902.41;5053662;28;20188;-80
2022/11/17 05:34:46;;;;;;;10.50;7.90;;;;;;;9.22;100.00;96898.09;5093579;28;20661;-80
2022/11/17 05:37:16;;;;;;;13.07;8.50;;;;;;;9.30;100.00;96904.31;5091039;28;20233;-80
2022/11/17 05:39:44;;;;;;;9.83;7.70;;;;;;;9.27;100.00;96901.16;5092550;28;20195;-80
2022/11/17 05:42:13;;;;;;;10.40;7.83;;;;;;;9.20;100.00;96895.59;5092135;28;20192;-80
2022/11/17 05:44:41;;;;;;;11.67;7.93;;;;;;;9.28;100.00;96892.25;5093656;28;20642;-80
2022/11/17 05:47:11;;;;;;;9.07;7.97;;;;;;;9.28;100.00;96898.34;5092441;28;20223;-80
2022/11/17 05:49:39;;;;;;;11.97;7.60;;;;;;;9.24;100.00;96902.25;5092357;28;20220;-80
2022/11/17 05:52:07;;;;;;;12.60;7.10;;;;;;;9.25;100.00;96906.56;5095811;27;20204;-80
2022/11/17 05:54:37;;;;;;;13.70;6.97;;;;;;;9.26;100.00;96902.09;5088510;28;20203;-80
2022/11/17 05:57:09;;;;;;;8.30;6.53;;;;;;;9.29;100.00;96902.66;5088643;28;20192;-80
2022/11/17 05:59:43;;;;;;;9.77;6.63;;;;;;;9.34;100.00;96896.94;5072444;28;20195;-80
2022/11/17 06:02:15;;;;;;;9.00;6.67;;;;;;;9.35;100.00;96898.59;5097843;28;20261;-79
2022/11/17 06:04:45;;;;;;;8.13;6.97;;;;;;;9.28;100.00;96892.25;5101802;28;20221;-80
2022/11/17 06:07:13;;;;;;;7.87;7.00;;;;;;;9.35;100.00;96898.59;5091152;28;20253;-80
2022/11/17 06:09:44;;;;;;;10.50;7.33;;;;;;;9.34;100.00;96891.66;5090532;28;20219;-79
2022/11/17 06:12:14;;;;;;;6.80;6.07;;;;;;;9.27;100.00;96891.41;5087839;28;20207;-80
2022/11/17 06:14:44;;;;;;;7.33;6.53;;;;;;;9.28;100.00;96897.53;5095204;28;20188;-81
2022/11/17 06:17:17;;;;;;;8.10;7.03;;;;;;;9.20;100.00;96897.41;5092831;28;20245;-80
2022/11/17 06:19:55;;;;;;;7.30;6.53;;;;;;;9.30;100.00;96899.03;5072920;28;20195;-80
2022/11/17 06:22:26;;;;;;;7.50;6.27;;;;;;;9.24;100.00;96912.81;5092408;28;20266;-80
2022/11/17 06:24:58;;;;;;;8.53;7.03;;;;;;;9.24;100.00;96914.63;5088205;28;20351;-80
2022/11/17 06:27:28;;;;;;;8.87;6.97;;;;;;;9.24;100.00;96911.97;5089605;28;20191;-80
2022/11/17 06:29:58;;;;;;;7.43;6.10;;;;;;;9.32;100.00;96907.66;5092698;28;20195;-80
2022/11/17 06:32:27;;;;;;;6.83;6.13;;;;;;;9.27;100.00;96907.25;5092460;28;20711;-80
2022/11/17 06:34:57;;;;;;;6.03;5.30;;;;;;;9.25;100.00;96897.81;5067771;28;20200;-79
2022/11/17 06:37:26;;;;;;;7.83;5.40;;;;;;;9.28;100.00;96894.88;5067341;28;20192;-80
2022/11/17 06:39:55;;;;;;;7.27;5.43;;;;;;;9.30;100.00;96896.41;5070190;28;20216;-80
2022/11/17 06:45:11;;;;;;;7.67;5.63;;;;;;;9.33;100.00;96879.41;5069837;28;20198;-80
2022/11/17 06:47:39;;;;;;;5.60;5.10;;;;;;;9.30;100.00;96888.47;5066965;28;20366;-80
2022/11/17 06:50:09;;;;;;;6.70;5.13;;;;;;;9.28;100.00;96886.97;5067094;28;20353;-80
2022/11/17 06:52:37;;;;;;;6.10;5.03;;;;;;;9.30;100.00;96895.56;5070468;28;20204;-81
2022/11/17 06:55:08;;;;;;;7.67;5.63;;;;;;;9.34;100.00;96887.19;5068249;28;20335;-81
2022/11/17 06:57:38;;;;;;;5.93;5.23;;;;;;;9.39;100.00;96895.53;5066571;28;20200;-81
2022/11/17 07:00:08;;;;;;;6.43;4.90;;;;;;;9.42;100.00;96894.38;5085297;28;20207;-81
2022/11/17 07:02:37;;;;;;;10.40;6.10;;;;;;;9.37;100.00;96902.78;5093606;28;20212;-80
2022/11/17 07:05:05;;;;;;;6.73;5.50;;;;;;;9.31;100.00;96898.06;5096503;28;20268;-81
2022/11/17 07:07:34;;;;;;;6.90;4.90;;;;;;;9.36;100.00;96906.38;5094986;28;20188;-80
2022/11/17 07:10:03;;;;;;;6.43;5.33;;;;;;;9.38;100.00;96914.16;5054169;28;20201;-80
2022/11/17 07:12:33;;;;;;;7.50;5.33;;;;;;;9.42;100.00;96915.53;5050595;28;20207;-81
2022/11/17 07:15:04;;;;;;;5.73;4.93;;;;;;;9.40;100.00;96910.38;5048377;28;20185;-80
2022/11/17 07:17:32;;;;;;;6.73;4.83;;;;;;;9.37;100.00;96908.06;5014080;28;20194;-81
2022/11/17 07:20:00;;;;;;;8.97;5.00;;;;;;;9.40;100.00;96926.25;5012020;28;20190;-81
2022/11/17 07:22:29;;;;;;;6.27;4.70;;;;;;;9.44;100.00;96917.03;5008887;28;20293;-81
2022/11/17 07:24:58;;;;;;;7.37;5.50;;;;;;;9.44;100.00;96911.75;5014254;28;20195;-80
2022/11/17 07:27:26;;;;;;;5.63;4.70;;;;;;;9.47;100.00;96910.66;5021507;28;20270;-81
2022/11/17 07:29:56;;;;;;;5.50;4.37;;;;;;;9.46;100.00;96901.88;5066065;28;20275;-81
2022/11/17 07:32:27;;;;;;;5.43;4.10;;;;;;;9.40;100.00;96899.81;5069554;28;20216;-81
2022/11/17 07:34:56;;;;;;;5.50;4.40;;;;;;;9.45;100.00;96920.50;5074515;28;20192;-81
2022/11/17 07:37:24;;;;;;;5.07;4.57;;;;;;;9.39;100.00;96910.53;5091163;28;20210;-81
2022/11/17 07:39:52;;;;;;;5.10;4.00;;;;;;;9.41;100.00;96911.22;5098439;27;20285;-81
2022/11/17 07:42:21;;;;;;;6.83;4.13;;;;;;;9.40;100.00;96907.75;5091878;28;20319;-81
2022/11/17 07:44:51;;;;;;;6.40;4.40;;;;;;;9.47;100.00;96905.38;5093101;28;20717;-80
2022/11/17 07:47:20;;;;;;;6.67;4.30;;;;;;;9.53;100.00;96909.22;5095439;28;20223;-81
2022/11/17 07:49:52;;;;;;;5.10;4.60;;;;;;;9.49;100.00;96916.59;5095725;28;20196;-81
2022/11/17 07:52:20;;;;;;;4.73;4.20;;;;;;;9.52;100.00;96913.66;5092301;28;20218;-81
2022/11/17 07:54:49;;;;;;;5.93;4.47;;;;;;;9.58;100.00;96914.91;5077145;28;20250;-81
2022/11/17 07:57:19;;;;;;;4.60;4.20;;;;;;;9.61;100.00;96918.06;5094230;28;20188;-81
2022/11/17 07:59:48;;;;;;;8.87;4.37;;;;;;;9.57;100.00;96913.25;5096040;28;20192;-82
2022/11/17 08:02:22;;;;;;;7.87;4.20;;;;;;;9.63;100.00;96918.75;5096139;28;20222;-81
2022/11/17 08:04:53;;;;;;;7.03;4.33;;;;;;;9.60;100.00;96910.28;5095362;28;20183;-81
2022/11/17 08:07:22;;;;;;;4.70;4.00;;;;;;;9.62;100.00;96898.59;5095352;28;20187;-81
2022/11/17 08:09:50;;;;;;;6.07;4.23;;;;;;;9.62;100.00;96911.81;5094509;28;20206;-81
2022/11/17 08:12:18;;;;;;;5.03;4.07;;;;;;;9.66;100.00;96905.25;5093365;28;20226;-81
2022/11/17 08:14:47;;;;;;;8.07;4.00;;;;;;;9.60;100.00;96905.84;5090449;28;20200;-81
2022/11/17 08:17:19;;;;;;;6.23;4.43;;;;;;;9.69;100.00;96899.66;5094123;28;20196;-81
2022/11/17 08:19:48;;;;;;;6.53;4.10;;;;;;;9.61;100.00;96907.50;5072733;28;20228;-80
2022/11/17 08:22:18;;;;;;;7.73;4.13;;;;;;;9.68;100.00;96913.88;5072834;28;20220;-81
2022/11/17 08:24:47;;;;;;;5.33;3.67;;;;;;;9.63;100.00;96910.81;5066800;28;20220;-81
2022/11/17 08:27:15;;;;;;;9.03;4.40;;;;;;;9.71;100.00;96908.28;5070222;28;20227;-81
2022/11/17 08:29:44;;;;;;;7.30;3.90;;;;;;;9.75;100.00;96912.31;5072880;28;20196;-81
2022/11/17 08:32:12;;;;;;;6.13;3.93;;;;;;;9.67;100.00;96906.09;5069191;28;20192;-82
2022/11/17 08:34:41;;;;;;;7.33;3.63;;;;;;;9.71;100.00;96912.72;5069027;28;20245;-82
2022/11/17 08:37:10;;;;;;;6.10;4.10;;;;;;;9.72;100.00;96899.34;5068766;28;20267;-81
2022/11/17 08:39:43;;;;;;;6.00;3.63;;;;;;;9.73;100.00;96908.13;5070934;28;20265;-81
2022/11/17 08:42:13;;;;;;;5.40;3.63;;;;;;;9.75;100.00;96901.72;5007549;28;20214;-81
2022/11/17 08:44:41;;;;;;;6.60;3.57;;;;;;;9.66;100.00;96902.63;5034399;28;20197;-82
2022/11/17 08:47:10;;;;;;;5.97;3.60;;;;;;;9.69;100.00;96902.31;5044636;28;20225;-80
2022/11/17 08:49:38;;;;;;;7.10;4.30;;;;;;;9.71;100.00;96907.44;5047105;28;20259;-81
2022/11/17 08:52:07;;;;;;;5.83;3.37;;;;;;;9.67;100.00;96898.16;5007320;28;20268;-81
2022/11/17 08:54:36;;;;;;;4.67;3.30;;;;;;;9.73;100.00;96898.38;5008578;28;20307;-81
2022/11/17 08:57:06;;;;;;;6.40;3.40;;;;;;;9.86;100.00;96889.28;5010719;28;20198;-80
2022/11/17 08:59:34;;;;;;;4.90;3.53;;;;;;;9.87;100.00;96898.88;5011251;28;20211;-80
2022/11/17 09:02:06;;;;;;;5.80;3.80;;;;;;;9.82;100.00;96901.13;5051315;28;20213;-81
2022/11/17 09:04:35;;;;;;;7.10;3.43;;;;;;;9.82;100.00;96911.69;5050720;28;20189;-81
2022/11/17 09:07:06;;;;;;;11.77;5.83;;;;;;;9.90;100.00;96904.69;5005839;28;20228;-80
2022/11/17 09:09:34;;;;;;;4.97;3.37;;;;;;;9.92;100.00;96912.44;5047764;28;20259;-81
2022/11/17 09:12:06;;;;;;;6.20;3.40;;;;;;;9.79;100.00;96914.63;5049207;28;20197;-80
2022/11/17 09:14:37;;;;;;;7.80;3.93;;;;;;;9.80;100.00;96924.22;5047835;28;20221;-80
2022/11/17 09:17:06;;;;;;;6.03;3.70;;;;;;;9.88;100.00;96935.72;5073263;28;20208;-80
2022/11/17 09:19:34;;;;;;;5.50;3.43;;;;;;;9.80;100.00;96934.81;5048787;28;20204;-80
2022/11/17 09:22:02;;;;;;;5.20;3.40;;;;;;;9.84;100.00;96942.28;5032118;28;20218;-82
2022/11/17 09:24:31;;;;;;;5.17;3.00;;;;;;;9.96;100.00;96949.03;5028377;28;20189;-81
2022/11/17 09:27:01;;;;;;;8.47;3.80;;;;;;;9.82;100.00;96944.25;5030340;28;20247;-80
2022/11/17 09:29:32;;;;;;;4.13;3.03;;;;;;;9.85;100.00;96943.13;5031200;28;20692;-81
2022/11/17 09:32:00;;;;;;;5.50;3.60;;;;;;;9.93;100.00;96944.03;5027298;28;20219;-81
2022/11/17 09:34:29;;;;;;;4.83;3.73;;;;;;;9.96;100.00;96950.84;5027263;28;20187;-80
2022/11/17 09:36:59;;;;;;;5.33;3.10;;;;;;;10.01;100.00;96949.41;5033683;28;20192;-81
2022/11/17 09:39:27;;;;;;;8.33;3.70;;;;;;;10.06;100.00;96945.50;5060934;28;20558;-81
2022/11/17 09:41:57;;;;;;;7.20;3.50;;;;;;;10.07;100.00;96952.44;5063789;28;20196;-81
2022/11/17 09:44:39;;;;;;;8.17;3.33;;;;;;;10.06;100.00;96948.97;5071148;28;20216;-81
2022/11/17 09:47:17;;;;;;;6.77;3.77;;;;;;;10.14;100.00;96940.31;5080327;28;20277;-81
2022/11/17 09:49:57;;;;;;;5.57;3.70;;;;;;;10.25;100.00;96954.16;5093481;28;20250;-80
2022/11/17 09:52:33;;;;;;;4.83;3.10;;;;;;;10.21;100.00;96950.09;5085758;28;20195;-80
2022/11/17 09:55:04;;;;;;;4.73;3.20;;;;;;;10.24;100.00;96954.31;5088484;28;20249;-81
2022/11/17 09:57:42;;;;;;;6.10;3.40;;;;;;;10.20;100.00;96960.84;5086359;28;20200;-81
2022/11/17 10:00:20;;;;;;;5.40;4.17;;;;;;;10.26;100.00;96963.75;5089291;28;20911;-81
2022/11/17 10:02:53;;;;;;;6.00;3.33;;;;;;;10.26;100.00;96971.69;5030806;28;20210;-81
2022/11/17 10:05:28;;;;;;;5.40;3.90;;;;;;;10.38;100.00;96967.00;5025817;28;20244;-81
2022/11/17 10:08:06;;;;;;;4.77;3.70;;;;;;;10.36;100.00;96976.91;5025693;28;20201;-81
2022/11/17 10:10:40;;;;;;;7.33;3.30;;;;;;;10.51;100.00;96987.78;5025893;28;20205;-80
2022/11/17 10:13:20;;;;;;;4.33;2.90;;;;;;;10.56;100.00;96982.91;5028421;28;20193;-81
2022/11/17 10:15:52;;;;;;;4.20;2.80;;;;;;;10.51;100.00;96983.31;4991747;28;20199;-81
2022/11/17 10:18:20;;;;;;;4.13;2.40;;;;;;;10.51;100.00;96983.31;4993044;28;20234;-81
2022/11/17 10:20:49;;;;;;;4.40;2.27;;;;;;;10.54;100.00;96991.00;4990738;28;20194;-81
2022/11/17 10:23:20;;;;;;;4.67;2.40;;;;;;;10.58;100.00;96987.03;4988280;28;20222;-80
2022/11/17 10:25:58;;;;;;;5.23;1.90;;;;;;;10.69;100.00;96988.63;4991790;28;20253;-81
2022/11/17 10:28:29;;;;;;;4.57;1.90;;;;;;;10.80;100.00;96983.09;5028149;28;20620;-80
2022/11/17 10:31:02;;;;;;;4.23;1.87;;;;;;;10.88;100.00;96977.84;5025502;28;20760;-80
2022/11/17 10:33:37;;;;;;;3.03;1.87;;;;;;;10.92;100.00;96973.09;5047462;28;20196;-81
2022/11/17 10:36:15;;;;;;;3.80;1.63;;;;;;;11.02;100.00;96976.50;5080363;28;20270;-81
2022/11/17 10:38:47;;;;;;;4.07;1.60;;;;;;;11.06;100.00;96969.06;5078955;28;20287;-81
2022/11/17 10:41:21;;;;;;;3.10;1.47;;;;;;;11.02;100.00;96968.53;5077427;28;20199;-81
2022/11/17 10:44:00;;;;;;;5.10;1.60;;;;;;;11.02;100.00;96968.53;5080295;28;20223;-81
2022/11/17 10:46:30;;;;;;;2.43;1.43;;;;;;;10.91;100.00;96967.97;5078959;28;20650;-81
2022/11/17 10:49:25;;;;;;;4.53;1.33;;;;;;;10.93;100.00;96969.47;5075880;28;20192;-81
2022/11/17 10:52:05;;;;;;;4.57;1.67;;;;;;;10.99;100.00;96968.00;5077485;28;20193;-81
2022/11/17 10:54:33;;;;;;;3.60;0.97;;;;;;;11.01;100.00;96964.22;5076225;28;20222;-81
2022/11/17 10:57:06;;;;;;;4.03;1.20;;;;;;;10.96;100.00;96963.84;5030236;28;20212;-80
2022/11/17 10:59:43;;;;;;;6.07;1.20;;;;;;;11.03;100.00;96959.59;5036125;28;20648;-81
2022/11/17 11:02:30;;;;;;;2.70;1.37;;;;;;;11.04;100.00;96941.91;5034287;28;20190;-80
2022/11/17 11:05:10;;;;;;;4.03;1.83;;;;;;;11.10;100.00;96926.22;5036512;28;20218;-81
2022/11/17 11:07:39;;;;;;;18.80;16.77;;;;;;;11.05;100.00;96920.53;5030930;28;20201;-80
2022/11/17 11:10:15;;;;;;;4.80;1.40;;;;;;;11.17;100.00;96915.81;5031706;28;20229;-80
2022/11/17 11:12:50;;;;;;;4.47;2.00;;;;;;;11.11;100.00;96913.81;5031756;28;20293;-80
2022/11/17 11:15:23;;;;;;;1.80;0.90;;;;;;;11.08;100.00;96906.16;5053928;28;20662;-81
2022/11/17 11:17:53;;;;;;;3.47;1.00;;;;;;;11.03;100.00;96905.81;5073289;28;20223;-80
2022/11/17 11:20:33;;;;;;;3.53;1.57;;;;;;;11.07;100.00;96893.91;5073989;28;20257;-81
2022/11/17 11:23:13;;;;;;;3.97;1.20;;;;;;;11.07;100.00;96896.53;5074644;28;20204;-81
2022/11/17 11:25:49;;;;;;;4.03;1.10;;;;;;;10.99;100.00;96896.50;5074283;28;20651;-81
2022/11/17 11:28:33;;;;;;;2.33;0.90;;;;;;;11.02;100.00;96898.84;5072180;28;20188;-81
2022/11/17 11:31:13;;;;;;;3.27;1.10;;;;;;;11.03;100.00;96895.22;5090716;28;20240;-81
2022/11/17 11:33:51;;;;;;;3.17;1.00;;;;;;;11.14;100.00;96889.63;5091645;28;20630;-79
2022/11/17 11:36:31;;;;;;;3.33;1.20;;;;;;;11.36;100.00;96889.06;5095448;28;20191;-81
2022/11/17 11:39:06;;;;;;;4.53;1.20;;;;;;;11.53;100.00;96871.44;5095908;28;20227;-81
2022/11/17 11:41:59;;;;;;;2.10;0.63;;;;;;;11.52;100.00;96883.03;5094600;28;20190;-81
2022/11/17 11:44:55;;;;;;;3.23;0.80;;;;;;;11.52;100.00;96879.53;5094143;28;20230;-81
2022/11/17 11:47:42;;;;;;;4.90;1.50;;;;;;;11.82;100.00;96881.66;5097079;27;20267;-81
2022/11/17 11:50:18;;;;;;;3.80;0.87;;;;;;;11.83;100.00;96893.09;5088691;28;20195;-81
2022/11/17 11:52:51;;;;;;;2.27;0.90;;;;;;;11.88;100.00;96894.28;5090990;28;20218;-82
2022/11/17 11:55:25;;;;;;;110.13;14.30;;;;;;;11.89;100.00;96890.63;5093482;28;20198;-81
2022/11/17 11:58:04;;;;;;;3.83;1.30;;;;;;;11.91;100.00;96907.19;5093484;28;20203;-80
2022/11/17 12:00:34;;;;;;;4.70;1.43;;;;;;;11.73;100.00;96909.09;5091839;28;20231;-79
2022/11/17 12:03:13;;;;;;;7.83;2.23;;;;;;;11.99;100.00;96911.69;5094794;28;20643;-80
2022/11/17 12:05:58;;;;;;;17.77;3.40;;;;;;;11.94;100.00;96922.78;5092842;28;20191;-81
2022/11/17 12:08:33;;;;;;;6.83;2.20;;;;;;;11.71;100.00;96903.13;5051011;28;20196;-81
2022/11/17 12:11:59;;;;;;;5.47;1.10;;;;;;;11.62;100.00;96922.66;5047337;28;20323;-80
2022/11/17 12:13:58;;;;;;;6.13;1.43;;;;;;;11.67;100.00;96930.94;5051393;28;20201;-81
2022/11/17 12:16:30;;;;;;;5.30;1.30;;;;;;;11.70;100.00;96931.47;5052416;28;20201;-81
2022/11/17 12:18:58;;;;;;;7.87;2.00;;;;;;;11.75;100.00;96926.50;5052759;28;20201;-80
2022/11/17 12:21:30;;;;;;;7.10;2.83;;;;;;;11.48;100.00;96929.38;4974451;28;20207;-81
2022/11/17 12:24:16;;;;;;;4.27;1.30;;;;;;;11.71;100.00;96937.59;4878871;29;20223;-81
2022/11/17 12:26:45;;;;;;;5.63;1.80;;;;;;;11.72;100.00;96941.91;4906852;29;20208;-81